Estación Meteorológica Peña el Pijo (Robertgarden) [ 12/11/19 23:03:26 CET ]

Fecha Hora Presion(HPa) Temp (°C) Humedad % Rocio (°C) Viento ( m/s) Direccion Lluvia 1Hora(mm) Lluvia 24H(mm) LLuvia Total(mm)
2019-Aug-16 01:01:53 1013.300 15.9 66 9.6         363.34
2019-Aug-16 02:01:38 1012.800 15.0 68 9.1         363.34
2019-Aug-16 03:02:06 1012.700 14.1 71 8.9         363.34
2019-Aug-16 04:01:50 1012.400 13.4 71 8.2         363.34
2019-Aug-16 05:02:00 1012.400 13.3 73 8.5         363.34
2019-Aug-16 06:01:53 1012.800 12.8 75 8.5         363.34
2019-Aug-16 07:01:48 1013.000 16.4 73 11.6         363.34
2019-Aug-16 08:01:55 1013.200 23.6 54 13.7         363.34
2019-Aug-16 09:01:38 1013.000 28.6 37 12.4         363.34
2019-Aug-16 10:01:53 1012.800 30.6 33 12.4 0.3 SW     363.34
2019-Aug-16 11:01:45 1012.600 33.8 28 12.6         363.34
2019-Aug-16 12:01:33 1012.200 35.3 25 12.0         363.34
2019-Aug-16 13:01:41 1012.100 35.3 24 11.4 0.5 W     363.34
2019-Aug-16 14:01:53 1011.800 32.9 27 11.3         363.34
2019-Aug-16 15:01:40 1011.400 33.3 27 11.6         363.34
2019-Aug-16 16:01:49 1011.200 31.3 29 11.1         363.34
2019-Aug-16 17:01:56 1011.100 30.1 32 11.6         363.34
2019-Aug-16 18:01:44 1010.900 28.9 33 10.9 2.5 W     363.34
2019-Aug-16 19:01:49 1011.400 27.6 37 11.5         363.34
2019-Aug-16 20:01:42 1012.100 25.1 42 11.3         363.34
2019-Aug-16 21:01:49 1012.700 21.2 52 10.9         363.34
2019-Aug-16 22:01:37 1012.800 18.9 58 10.5         363.34
2019-Aug-16 23:01:42 1012.900 17.4 62 10.0         363.34

Temperatura Máxima:35°    Temperatura Mínima:12°
Presión Máxima:1013.300 Hpa    Presión Mínima:1010.900 Hpa


Volver